Quick Links (Output Below):   Max & Min Temps   /   Climate Reports   /   Zone Forecasts
River Forecasts   /   Forestry Forecasts   /   Aviation Forecasts   /   Radars   /   Features

Terminal Aerodrome Forecast (Little Rock)

Pick a Site:
Arkadelphia | El Dorado | Fayetteville | Fort Smith | Harrison | Highfill | Hot Springs | Jonesboro
Little Rock | Monticello | Mountain Home | Pine Bluff | Texarkana
 Forecast 

KLIT 040534Z 0406/0506 VRB03KT P6SM BKN250
     FM041500 18006KT P6SM FEW050 SCT250
     FM050000 VRB03KT P6SM BKN250=


 Latest METARs (Observations) 
How to Decode METARs
09Z KLIT 040853Z 22003KT 9SM CLR 24/22 A2995 RMK AO2 SLP140 T02440217
         53006 $
         
08Z KLIT 040753Z 00000KT 10SM FEW250 25/21 A2993 RMK AO2 SLP135
         T02500211 $
         
07Z KLIT 040653Z 00000KT 10SM FEW250 26/21 A2993 RMK AO2 SLP134
         T02560211 $
         
06Z KLIT 040553Z 00000KT 10SM SCT250 26/21 A2993 RMK AO2 SLP133
         T02610211 10328 20261 403670228 58001 $
         
05Z KLIT 040453Z 00000KT 10SM BKN250 27/21 A2993 RMK AO2 SLP134
         T02670206 $
         
04Z KLIT 040353Z 00000KT 10SM BKN250 28/22 A2994 RMK AO2 SLP137
         T02780217 $
         
03Z KLIT 040253Z 00000KT 10SM BKN250 28/21 A2993 RMK AO2 SLP135
         T02830206 53011 $
         
02Z KLIT 040153Z 19003KT 10SM BKN250 29/21 A2991 RMK AO2 SLP128
         T02940206 $
         
01Z KLIT 040053Z 19004KT 10SM BKN250 31/19 A2991 RMK AO2 SLP128
         T03110194 $
         
00Z KLIT 032353Z 17004KT 10SM FEW120 BKN250 33/19 A2990 RMK AO2 SLP124
         T03280194 10367 20328 56005
         
***** Today's Observations (Above) *****


Back to Main Page
http://www.srh.noaa.gov/lzk/qfcst.php

USA.gov is the U.S. government's official web portal to all federal, state and local government web resources and services.